sensor_id;sensor_type;location;lat;lon;timestamp;temperature;humidity
43999;DHT22;51319;52.162;5.302;2022-07-29T00:02:06;17.60;66.20
43999;DHT22;51319;52.162;5.302;2022-07-29T00:04:35;17.50;66.20
43999;DHT22;51319;52.162;5.302;2022-07-29T00:07:02;17.50;66.30
43999;DHT22;51319;52.162;5.302;2022-07-29T00:09:28;17.50;66.60
43999;DHT22;51319;52.162;5.302;2022-07-29T00:11:57;17.40;66.50
43999;DHT22;51319;52.162;5.302;2022-07-29T00:14:24;17.40;66.80
43999;DHT22;51319;52.162;5.302;2022-07-29T00:16:51;17.30;67.00
43999;DHT22;51319;52.162;5.302;2022-07-29T00:19:17;17.30;67.20
43999;DHT22;51319;52.162;5.302;2022-07-29T00:21:43;17.20;67.40
43999;DHT22;51319;52.162;5.302;2022-07-29T00:24:10;17.20;67.50
43999;DHT22;51319;52.162;5.302;2022-07-29T00:26:36;17.10;67.50
43999;DHT22;51319;52.162;5.302;2022-07-29T00:29:03;17.10;67.60
43999;DHT22;51319;52.162;5.302;2022-07-29T00:31:50;17.10;67.80
43999;DHT22;51319;52.162;5.302;2022-07-29T00:34:17;17.10;67.90
43999;DHT22;51319;52.162;5.302;2022-07-29T00:37:02;17.00;68.10
43999;DHT22;51319;52.162;5.302;2022-07-29T00:39:29;16.90;68.10
43999;DHT22;51319;52.162;5.302;2022-07-29T00:41:55;16.90;68.40
43999;DHT22;51319;52.162;5.302;2022-07-29T00:44:21;16.90;68.50
43999;DHT22;51319;52.162;5.302;2022-07-29T00:46:47;16.90;68.70
43999;DHT22;51319;52.162;5.302;2022-07-29T00:49:13;16.80;68.70
43999;DHT22;51319;52.162;5.302;2022-07-29T00:51:40;16.80;68.80
43999;DHT22;51319;52.162;5.302;2022-07-29T00:54:07;16.80;69.00
43999;DHT22;51319;52.162;5.302;2022-07-29T00:56:33;16.80;69.20
43999;DHT22;51319;52.162;5.302;2022-07-29T00:59:00;16.70;69.30
43999;DHT22;51319;52.162;5.302;2022-07-29T01:01:26;16.70;69.50
43999;DHT22;51319;52.162;5.302;2022-07-29T01:03:54;16.70;69.40
43999;DHT22;51319;52.162;5.302;2022-07-29T01:06:20;16.70;70.00
43999;DHT22;51319;52.162;5.302;2022-07-29T01:08:47;16.70;69.50
43999;DHT22;51319;52.162;5.302;2022-07-29T01:11:15;16.70;69.60
43999;DHT22;51319;52.162;5.302;2022-07-29T01:13:44;16.70;69.70
43999;DHT22;51319;52.162;5.302;2022-07-29T01:16:37;16.70;69.70
43999;DHT22;51319;52.162;5.302;2022-07-29T01:19:19;16.70;70.10
43999;DHT22;51319;52.162;5.302;2022-07-29T01:21:57;16.60;70.00
43999;DHT22;51319;52.162;5.302;2022-07-29T01:30:18;16.50;70.40
43999;DHT22;51319;52.162;5.302;2022-07-29T01:32:49;16.50;70.40
43999;DHT22;51319;52.162;5.302;2022-07-29T01:35:25;16.40;70.60
43999;DHT22;51319;52.162;5.302;2022-07-29T01:38:22;16.40;70.80
43999;DHT22;51319;52.162;5.302;2022-07-29T01:40:54;16.30;71.10
43999;DHT22;51319;52.162;5.302;2022-07-29T01:43:49;16.30;70.90
43999;DHT22;51319;52.162;5.302;2022-07-29T01:46:28;16.30;71.40
43999;DHT22;51319;52.162;5.302;2022-07-29T01:49:09;16.20;71.40
43999;DHT22;51319;52.162;5.302;2022-07-29T01:54:35;16.20;71.60
43999;DHT22;51319;52.162;5.302;2022-07-29T01:57:04;16.20;71.80
43999;DHT22;51319;52.162;5.302;2022-07-29T01:59:34;16.10;71.70
43999;DHT22;51319;52.162;5.302;2022-07-29T02:02:02;16.10;71.80
43999;DHT22;51319;52.162;5.302;2022-07-29T02:04:29;16.10;71.90
43999;DHT22;51319;52.162;5.302;2022-07-29T02:07:02;16.10;72.00
43999;DHT22;51319;52.162;5.302;2022-07-29T02:09:30;16.10;72.00
43999;DHT22;51319;52.162;5.302;2022-07-29T02:11:57;16.20;72.00
43999;DHT22;51319;52.162;5.302;2022-07-29T02:14:26;16.10;71.90
43999;DHT22;51319;52.162;5.302;2022-07-29T02:16:56;16.20;72.00
43999;DHT22;51319;52.162;5.302;2022-07-29T02:19:26;16.20;71.90
43999;DHT22;51319;52.162;5.302;2022-07-29T02:21:54;16.20;71.80
43999;DHT22;51319;52.162;5.302;2022-07-29T02:24:23;16.20;71.80
43999;DHT22;51319;52.162;5.302;2022-07-29T02:26:51;16.20;71.60
43999;DHT22;51319;52.162;5.302;2022-07-29T02:29:21;16.20;71.60
43999;DHT22;51319;52.162;5.302;2022-07-29T02:31:49;16.20;71.70
43999;DHT22;51319;52.162;5.302;2022-07-29T02:34:17;16.20;71.80
43999;DHT22;51319;52.162;5.302;2022-07-29T02:36:45;16.20;71.70
43999;DHT22;51319;52.162;5.302;2022-07-29T02:39:15;16.20;71.50
43999;DHT22;51319;52.162;5.302;2022-07-29T02:41:58;16.30;71.50
43999;DHT22;51319;52.162;5.302;2022-07-29T02:44:25;16.20;71.50
43999;DHT22;51319;52.162;5.302;2022-07-29T02:47:18;16.30;71.60
43999;DHT22;51319;52.162;5.302;2022-07-29T02:49:59;16.20;71.80
43999;DHT22;51319;52.162;5.302;2022-07-29T02:52:48;16.20;71.70
43999;DHT22;51319;52.162;5.302;2022-07-29T02:55:34;16.20;71.60
43999;DHT22;51319;52.162;5.302;2022-07-29T02:58:21;16.20;71.60
43999;DHT22;51319;52.162;5.302;2022-07-29T03:00:50;16.20;71.50
43999;DHT22;51319;52.162;5.302;2022-07-29T03:03:19;16.20;71.60
43999;DHT22;51319;52.162;5.302;2022-07-29T03:05:47;16.20;71.60
43999;DHT22;51319;52.162;5.302;2022-07-29T03:08:14;16.20;71.80
43999;DHT22;51319;52.162;5.302;2022-07-29T03:10:44;16.20;71.90
43999;DHT22;51319;52.162;5.302;2022-07-29T03:13:11;16.20;72.10
43999;DHT22;51319;52.162;5.302;2022-07-29T03:15:39;16.20;72.00
43999;DHT22;51319;52.162;5.302;2022-07-29T03:18:06;16.20;72.00
43999;DHT22;51319;52.162;5.302;2022-07-29T03:20:32;16.20;72.10
43999;DHT22;51319;52.162;5.302;2022-07-29T03:22:58;16.10;72.20
43999;DHT22;51319;52.162;5.302;2022-07-29T03:25:24;16.10;72.20
43999;DHT22;51319;52.162;5.302;2022-07-29T03:27:52;16.10;72.20
43999;DHT22;51319;52.162;5.302;2022-07-29T03:30:19;16.10;72.10
43999;DHT22;51319;52.162;5.302;2022-07-29T03:32:49;16.10;72.10
43999;DHT22;51319;52.162;5.302;2022-07-29T03:35:18;16.10;72.20
43999;DHT22;51319;52.162;5.302;2022-07-29T03:37:48;16.10;72.30
43999;DHT22;51319;52.162;5.302;2022-07-29T03:40:22;16.10;72.90
43999;DHT22;51319;52.162;5.302;2022-07-29T03:42:49;16.10;72.30
43999;DHT22;51319;52.162;5.302;2022-07-29T03:45:18;16.10;73.00
43999;DHT22;51319;52.162;5.302;2022-07-29T03:47:55;16.10;72.50
43999;DHT22;51319;52.162;5.302;2022-07-29T03:50:28;16.10;72.70
43999;DHT22;51319;52.162;5.302;2022-07-29T03:52:55;16.10;72.60
43999;DHT22;51319;52.162;5.302;2022-07-29T03:55:21;16.10;72.70
43999;DHT22;51319;52.162;5.302;2022-07-29T03:57:48;16.00;72.70
43999;DHT22;51319;52.162;5.302;2022-07-29T04:00:15;16.00;72.70
43999;DHT22;51319;52.162;5.302;2022-07-29T04:02:43;16.00;72.80
43999;DHT22;51319;52.162;5.302;2022-07-29T04:05:15;16.00;72.70
43999;DHT22;51319;52.162;5.302;2022-07-29T04:07:47;16.00;72.70
43999;DHT22;51319;52.162;5.302;2022-07-29T04:10:14;16.10;73.00
43999;DHT22;51319;52.162;5.302;2022-07-29T04:12:41;16.10;72.90
43999;DHT22;51319;52.162;5.302;2022-07-29T04:15:08;16.10;72.80
43999;DHT22;51319;52.162;5.302;2022-07-29T04:17:34;16.10;72.90
43999;DHT22;51319;52.162;5.302;2022-07-29T04:20:01;16.10;73.10
43999;DHT22;51319;52.162;5.302;2022-07-29T04:22:27;16.10;73.00
43999;DHT22;51319;52.162;5.302;2022-07-29T04:24:53;16.10;72.90
43999;DHT22;51319;52.162;5.302;2022-07-29T04:27:19;16.10;73.00
43999;DHT22;51319;52.162;5.302;2022-07-29T04:29:46;16.10;73.00
43999;DHT22;51319;52.162;5.302;2022-07-29T04:32:22;16.10;73.00
43999;DHT22;51319;52.162;5.302;2022-07-29T04:34:49;16.10;73.00
43999;DHT22;51319;52.162;5.302;2022-07-29T04:37:15;16.10;73.00
43999;DHT22;51319;52.162;5.302;2022-07-29T04:39:42;16.10;73.10
43999;DHT22;51319;52.162;5.302;2022-07-29T04:42:08;16.10;73.10
43999;DHT22;51319;52.162;5.302;2022-07-29T04:44:34;16.10;73.00
43999;DHT22;51319;52.162;5.302;2022-07-29T04:47:07;16.10;73.00
43999;DHT22;51319;52.162;5.302;2022-07-29T04:49:34;16.10;72.90
43999;DHT22;51319;52.162;5.302;2022-07-29T04:52:00;16.10;73.00
43999;DHT22;51319;52.162;5.302;2022-07-29T04:54:26;16.10;72.80
43999;DHT22;51319;52.162;5.302;2022-07-29T04:56:52;16.10;72.80
43999;DHT22;51319;52.162;5.302;2022-07-29T04:59:18;16.20;72.90
43999;DHT22;51319;52.162;5.302;2022-07-29T05:01:45;16.20;72.80
43999;DHT22;51319;52.162;5.302;2022-07-29T05:04:11;16.20;72.80
43999;DHT22;51319;52.162;5.302;2022-07-29T05:06:38;16.20;72.80
43999;DHT22;51319;52.162;5.302;2022-07-29T05:09:04;16.20;72.80
43999;DHT22;51319;52.162;5.302;2022-07-29T05:11:30;16.30;73.50
43999;DHT22;51319;52.162;5.302;2022-07-29T05:13:56;16.30;72.90
43999;DHT22;51319;52.162;5.302;2022-07-29T05:16:22;16.30;72.90
43999;DHT22;51319;52.162;5.302;2022-07-29T05:18:49;16.40;73.10
43999;DHT22;51319;52.162;5.302;2022-07-29T05:21:15;16.50;73.00
43999;DHT22;51319;52.162;5.302;2022-07-29T05:23:41;16.50;73.00
43999;DHT22;51319;52.162;5.302;2022-07-29T05:26:07;16.60;72.80
43999;DHT22;51319;52.162;5.302;2022-07-29T05:28:34;16.70;72.50
43999;DHT22;51319;52.162;5.302;2022-07-29T05:31:03;16.70;72.40
43999;DHT22;51319;52.162;5.302;2022-07-29T05:33:30;16.80;72.30
43999;DHT22;51319;52.162;5.302;2022-07-29T05:36:02;16.90;72.10
43999;DHT22;51319;52.162;5.302;2022-07-29T05:38:28;17.00;71.80
43999;DHT22;51319;52.162;5.302;2022-07-29T05:40:57;17.10;71.60
43999;DHT22;51319;52.162;5.302;2022-07-29T05:43:23;17.10;71.20
43999;DHT22;51319;52.162;5.302;2022-07-29T05:45:49;17.20;71.10
43999;DHT22;51319;52.162;5.302;2022-07-29T05:48:16;17.30;71.30
43999;DHT22;51319;52.162;5.302;2022-07-29T05:50:42;17.40;70.90
43999;DHT22;51319;52.162;5.302;2022-07-29T05:53:09;17.50;70.60
43999;DHT22;51319;52.162;5.302;2022-07-29T05:55:46;17.80;70.60
43999;DHT22;51319;52.162;5.302;2022-07-29T05:58:13;18.10;69.80
43999;DHT22;51319;52.162;5.302;2022-07-29T06:00:39;18.30;69.10
43999;DHT22;51319;52.162;5.302;2022-07-29T06:03:05;18.40;68.70
43999;DHT22;51319;52.162;5.302;2022-07-29T06:05:31;18.40;68.30
43999;DHT22;51319;52.162;5.302;2022-07-29T06:07:58;18.50;68.00
43999;DHT22;51319;52.162;5.302;2022-07-29T06:10:24;18.50;67.50
43999;DHT22;51319;52.162;5.302;2022-07-29T06:12:52;18.60;67.40
43999;DHT22;51319;52.162;5.302;2022-07-29T06:15:19;18.80;67.50
43999;DHT22;51319;52.162;5.302;2022-07-29T06:17:45;18.90;67.20
43999;DHT22;51319;52.162;5.302;2022-07-29T06:20:30;19.00;66.00
43999;DHT22;51319;52.162;5.302;2022-07-29T06:22:58;19.00;65.40
43999;DHT22;51319;52.162;5.302;2022-07-29T06:25:25;19.20;64.70
43999;DHT22;51319;52.162;5.302;2022-07-29T06:27:52;19.00;64.00
43999;DHT22;51319;52.162;5.302;2022-07-29T06:30:18;18.80;64.00
43999;DHT22;51319;52.162;5.302;2022-07-29T06:32:44;18.80;64.20
43999;DHT22;51319;52.162;5.302;2022-07-29T06:35:10;19.00;64.40
43999;DHT22;51319;52.162;5.302;2022-07-29T06:37:56;19.00;64.10
43999;DHT22;51319;52.162;5.302;2022-07-29T06:40:25;19.00;64.00
43999;DHT22;51319;52.162;5.302;2022-07-29T06:43:10;19.40;64.00
43999;DHT22;51319;52.162;5.302;2022-07-29T06:45:36;19.90;62.50
43999;DHT22;51319;52.162;5.302;2022-07-29T06:48:04;20.50;61.00
43999;DHT22;51319;52.162;5.302;2022-07-29T06:50:30;21.10;59.00
43999;DHT22;51319;52.162;5.302;2022-07-29T06:52:57;21.30;57.70
43999;DHT22;51319;52.162;5.302;2022-07-29T06:55:23;21.40;57.80
43999;DHT22;51319;52.162;5.302;2022-07-29T06:57:50;21.80;56.70
43999;DHT22;51319;52.162;5.302;2022-07-29T07:00:17;22.00;56.60
43999;DHT22;51319;52.162;5.302;2022-07-29T07:02:43;21.80;56.30
43999;DHT22;51319;52.162;5.302;2022-07-29T07:05:09;21.80;56.20
43999;DHT22;51319;52.162;5.302;2022-07-29T07:07:35;22.80;54.90
43999;DHT22;51319;52.162;5.302;2022-07-29T07:10:02;23.50;52.30
43999;DHT22;51319;52.162;5.302;2022-07-29T07:12:28;23.70;50.80
43999;DHT22;51319;52.162;5.302;2022-07-29T07:14:54;23.10;51.20
43999;DHT22;51319;52.162;5.302;2022-07-29T07:17:21;22.50;52.50
43999;DHT22;51319;52.162;5.302;2022-07-29T07:19:47;22.20;53.50
43999;DHT22;51319;52.162;5.302;2022-07-29T07:22:13;21.90;54.00
43999;DHT22;51319;52.162;5.302;2022-07-29T07:24:39;21.70;54.20
43999;DHT22;51319;52.162;5.302;2022-07-29T07:27:05;21.50;55.60
43999;DHT22;51319;52.162;5.302;2022-07-29T07:29:31;21.40;55.70
43999;DHT22;51319;52.162;5.302;2022-07-29T07:31:58;21.40;55.90
43999;DHT22;51319;52.162;5.302;2022-07-29T07:34:26;21.50;55.70
43999;DHT22;51319;52.162;5.302;2022-07-29T07:36:55;21.70;55.10
43999;DHT22;51319;52.162;5.302;2022-07-29T07:39:21;21.80;55.60
43999;DHT22;51319;52.162;5.302;2022-07-29T07:41:47;21.90;54.90
43999;DHT22;51319;52.162;5.302;2022-07-29T07:44:14;21.90;54.80
43999;DHT22;51319;52.162;5.302;2022-07-29T07:46:43;22.10;54.20
43999;DHT22;51319;52.162;5.302;2022-07-29T07:49:12;22.10;53.90
43999;DHT22;51319;52.162;5.302;2022-07-29T07:51:38;22.20;53.80
43999;DHT22;51319;52.162;5.302;2022-07-29T07:54:04;22.10;53.90
43999;DHT22;51319;52.162;5.302;2022-07-29T07:56:31;22.10;54.50
43999;DHT22;51319;52.162;5.302;2022-07-29T07:59:00;22.20;54.30
43999;DHT22;51319;52.162;5.302;2022-07-29T08:01:27;22.20;54.20
43999;DHT22;51319;52.162;5.302;2022-07-29T08:03:54;22.30;54.70
43999;DHT22;51319;52.162;5.302;2022-07-29T08:06:20;22.50;54.40
43999;DHT22;51319;52.162;5.302;2022-07-29T08:08:46;23.40;52.80
43999;DHT22;51319;52.162;5.302;2022-07-29T08:11:12;24.50;50.70
43999;DHT22;51319;52.162;5.302;2022-07-29T08:13:39;26.20;48.10
43999;DHT22;51319;52.162;5.302;2022-07-29T08:16:06;27.60;46.90
43999;DHT22;51319;52.162;5.302;2022-07-29T08:18:42;28.60;45.00
43999;DHT22;51319;52.162;5.302;2022-07-29T08:21:09;29.90;42.40
43999;DHT22;51319;52.162;5.302;2022-07-29T08:23:35;29.80;42.00
43999;DHT22;51319;52.162;5.302;2022-07-29T08:26:14;28.80;41.50
43999;DHT22;51319;52.162;5.302;2022-07-29T08:28:42;27.80;43.30
43999;DHT22;51319;52.162;5.302;2022-07-29T08:31:13;27.20;43.60
43999;DHT22;51319;52.162;5.302;2022-07-29T08:33:39;26.60;44.10
43999;DHT22;51319;52.162;5.302;2022-07-29T08:36:06;26.40;45.70
43999;DHT22;51319;52.162;5.302;2022-07-29T08:38:33;26.70;45.80
43999;DHT22;51319;52.162;5.302;2022-07-29T08:41:02;26.80;44.90
43999;DHT22;51319;52.162;5.302;2022-07-29T08:43:29;26.80;44.80
43999;DHT22;51319;52.162;5.302;2022-07-29T08:45:56;26.80;44.60
43999;DHT22;51319;52.162;5.302;2022-07-29T08:48:23;26.80;44.90
43999;DHT22;51319;52.162;5.302;2022-07-29T08:50:54;26.80;44.60
43999;DHT22;51319;52.162;5.302;2022-07-29T08:53:24;26.80;44.40
43999;DHT22;51319;52.162;5.302;2022-07-29T08:55:53;27.00;44.50
43999;DHT22;51319;52.162;5.302;2022-07-29T08:58:20;27.30;43.70
43999;DHT22;51319;52.162;5.302;2022-07-29T09:00:55;27.80;43.10
43999;DHT22;51319;52.162;5.302;2022-07-29T09:03:29;28.00;42.90
43999;DHT22;51319;52.162;5.302;2022-07-29T09:05:55;28.60;41.80
43999;DHT22;51319;52.162;5.302;2022-07-29T09:08:23;29.20;42.80
43999;DHT22;51319;52.162;5.302;2022-07-29T09:10:49;29.70;41.00
43999;DHT22;51319;52.162;5.302;2022-07-29T09:13:17;29.40;41.10
43999;DHT22;51319;52.162;5.302;2022-07-29T09:15:44;29.20;41.90
43999;DHT22;51319;52.162;5.302;2022-07-29T09:18:10;29.50;42.10
43999;DHT22;51319;52.162;5.302;2022-07-29T09:20:56;29.70;40.40
43999;DHT22;51319;52.162;5.302;2022-07-29T09:23:41;30.50;41.10
43999;DHT22;51319;52.162;5.302;2022-07-29T09:26:09;31.10;39.90
43999;DHT22;51319;52.162;5.302;2022-07-29T09:28:41;31.50;38.80
43999;DHT22;51319;52.162;5.302;2022-07-29T09:31:07;32.30;38.80
43999;DHT22;51319;52.162;5.302;2022-07-29T09:33:34;33.10;37.40
43999;DHT22;51319;52.162;5.302;2022-07-29T09:36:06;34.10;35.80
43999;DHT22;51319;52.162;5.302;2022-07-29T09:38:34;34.90;34.50
43999;DHT22;51319;52.162;5.302;2022-07-29T09:41:03;35.40;33.20
43999;DHT22;51319;52.162;5.302;2022-07-29T09:43:32;35.80;33.50
43999;DHT22;51319;52.162;5.302;2022-07-29T09:46:12;36.30;32.20
43999;DHT22;51319;52.162;5.302;2022-07-29T09:48:39;36.70;31.80
43999;DHT22;51319;52.162;5.302;2022-07-29T09:51:05;37.00;31.80
43999;DHT22;51319;52.162;5.302;2022-07-29T09:53:35;37.40;30.60
43999;DHT22;51319;52.162;5.302;2022-07-29T09:56:03;37.90;30.10
43999;DHT22;51319;52.162;5.302;2022-07-29T09:58:30;38.30;29.50
43999;DHT22;51319;52.162;5.302;2022-07-29T10:00:59;38.60;29.40
43999;DHT22;51319;52.162;5.302;2022-07-29T10:03:26;38.90;29.10
43999;DHT22;51319;52.162;5.302;2022-07-29T10:06:09;39.40;29.50
43999;DHT22;51319;52.162;5.302;2022-07-29T10:08:36;39.80;29.30
43999;DHT22;51319;52.162;5.302;2022-07-29T10:11:14;40.00;28.40
43999;DHT22;51319;52.162;5.302;2022-07-29T10:13:44;40.00;28.40
43999;DHT22;51319;52.162;5.302;2022-07-29T10:16:11;40.20;28.40
43999;DHT22;51319;52.162;5.302;2022-07-29T10:18:41;40.40;28.10
43999;DHT22;51319;52.162;5.302;2022-07-29T10:21:07;40.20;28.10
43999;DHT22;51319;52.162;5.302;2022-07-29T10:23:35;40.30;28.80
43999;DHT22;51319;52.162;5.302;2022-07-29T10:26:13;40.40;28.00
43999;DHT22;51319;52.162;5.302;2022-07-29T10:28:40;40.50;29.00
43999;DHT22;51319;52.162;5.302;2022-07-29T10:31:09;40.70;28.50
43999;DHT22;51319;52.162;5.302;2022-07-29T10:42:22;41.70;27.50
43999;DHT22;51319;52.162;5.302;2022-07-29T10:45:02;41.80;27.30
43999;DHT22;51319;52.162;5.302;2022-07-29T10:47:30;41.90;27.50
43999;DHT22;51319;52.162;5.302;2022-07-29T10:50:03;42.10;27.80
43999;DHT22;51319;52.162;5.302;2022-07-29T10:55:35;42.50;27.30
43999;DHT22;51319;52.162;5.302;2022-07-29T10:58:17;42.70;26.80
43999;DHT22;51319;52.162;5.302;2022-07-29T11:00:47;42.70;27.30
43999;DHT22;51319;52.162;5.302;2022-07-29T11:03:46;42.70;26.50
43999;DHT22;51319;52.162;5.302;2022-07-29T11:06:18;42.70;26.60
43999;DHT22;51319;52.162;5.302;2022-07-29T11:09:16;42.50;27.00
43999;DHT22;51319;52.162;5.302;2022-07-29T11:11:46;42.40;27.00
43999;DHT22;51319;52.162;5.302;2022-07-29T11:14:20;42.30;26.40
43999;DHT22;51319;52.162;5.302;2022-07-29T11:17:06;41.90;26.70
43999;DHT22;51319;52.162;5.302;2022-07-29T11:19:34;42.20;27.50
43999;DHT22;51319;52.162;5.302;2022-07-29T11:22:08;42.00;27.00
43999;DHT22;51319;52.162;5.302;2022-07-29T11:24:35;42.20;27.40
43999;DHT22;51319;52.162;5.302;2022-07-29T11:27:13;42.50;27.40
43999;DHT22;51319;52.162;5.302;2022-07-29T11:29:52;43.10;26.50
43999;DHT22;51319;52.162;5.302;2022-07-29T11:32:19;42.90;26.40
43999;DHT22;51319;52.162;5.302;2022-07-29T11:34:49;42.40;27.10
43999;DHT22;51319;52.162;5.302;2022-07-29T11:37:18;42.50;27.40
43999;DHT22;51319;52.162;5.302;2022-07-29T11:45:02;43.10;26.60
43999;DHT22;51319;52.162;5.302;2022-07-29T11:47:53;43.00;27.20
43999;DHT22;51319;52.162;5.302;2022-07-29T11:50:35;43.10;26.80
43999;DHT22;51319;52.162;5.302;2022-07-29T11:53:12;42.90;27.30
43999;DHT22;51319;52.162;5.302;2022-07-29T11:55:40;42.80;26.70
43999;DHT22;51319;52.162;5.302;2022-07-29T11:58:22;42.70;27.10
43999;DHT22;51319;52.162;5.302;2022-07-29T12:00:52;42.70;27.40
43999;DHT22;51319;52.162;5.302;2022-07-29T12:03:28;42.60;27.50
43999;DHT22;51319;52.162;5.302;2022-07-29T12:06:14;42.60;27.00
43999;DHT22;51319;52.162;5.302;2022-07-29T12:08:44;42.80;27.30
43999;DHT22;51319;52.162;5.302;2022-07-29T12:11:18;42.50;27.00
43999;DHT22;51319;52.162;5.302;2022-07-29T12:13:47;42.30;27.30
43999;DHT22;51319;52.162;5.302;2022-07-29T12:16:16;42.20;28.20
43999;DHT22;51319;52.162;5.302;2022-07-29T12:18:57;42.10;27.80
43999;DHT22;51319;52.162;5.302;2022-07-29T12:21:23;41.70;27.80
43999;DHT22;51319;52.162;5.302;2022-07-29T12:23:55;40.80;27.90
43999;DHT22;51319;52.162;5.302;2022-07-29T12:26:27;39.50;28.50
43999;DHT22;51319;52.162;5.302;2022-07-29T12:28:53;38.50;28.90
43999;DHT22;51319;52.162;5.302;2022-07-29T12:31:22;37.40;29.70
43999;DHT22;51319;52.162;5.302;2022-07-29T12:34:08;36.80;31.20
43999;DHT22;51319;52.162;5.302;2022-07-29T12:36:35;36.10;32.80
43999;DHT22;51319;52.162;5.302;2022-07-29T12:39:02;35.60;31.70
43999;DHT22;51319;52.162;5.302;2022-07-29T12:41:30;35.10;32.70
43999;DHT22;51319;52.162;5.302;2022-07-29T12:43:56;34.70;33.70
43999;DHT22;51319;52.162;5.302;2022-07-29T12:46:22;34.20;33.30
43999;DHT22;51319;52.162;5.302;2022-07-29T12:48:52;34.00;33.70
43999;DHT22;51319;52.162;5.302;2022-07-29T12:51:36;33.80;36.00
43999;DHT22;51319;52.162;5.302;2022-07-29T12:54:12;33.90;35.00
43999;DHT22;51319;52.162;5.302;2022-07-29T12:56:40;34.10;35.60
43999;DHT22;51319;52.162;5.302;2022-07-29T12:59:21;34.60;34.60
43999;DHT22;51319;52.162;5.302;2022-07-29T13:01:50;35.20;34.40
43999;DHT22;51319;52.162;5.302;2022-07-29T13:04:30;35.60;33.00
43999;DHT22;51319;52.162;5.302;2022-07-29T13:07:10;36.20;33.20
43999;DHT22;51319;52.162;5.302;2022-07-29T13:09:44;36.90;31.70
43999;DHT22;51319;52.162;5.302;2022-07-29T13:12:14;37.40;31.90
43999;DHT22;51319;52.162;5.302;2022-07-29T13:14:43;37.90;31.80
43999;DHT22;51319;52.162;5.302;2022-07-29T13:17:17;38.20;30.80
43999;DHT22;51319;52.162;5.302;2022-07-29T13:19:44;38.50;30.20
43999;DHT22;51319;52.162;5.302;2022-07-29T13:22:19;38.70;30.90
43999;DHT22;51319;52.162;5.302;2022-07-29T13:24:56;38.80;29.70
43999;DHT22;51319;52.162;5.302;2022-07-29T13:27:32;38.80;29.50
43999;DHT22;51319;52.162;5.302;2022-07-29T13:30:00;38.80;29.80
43999;DHT22;51319;52.162;5.302;2022-07-29T13:32:28;38.80;29.80
43999;DHT22;51319;52.162;5.302;2022-07-29T13:34:59;38.80;29.80
43999;DHT22;51319;52.162;5.302;2022-07-29T13:37:27;38.70;28.90
43999;DHT22;51319;52.162;5.302;2022-07-29T13:39:56;38.60;29.50
43999;DHT22;51319;52.162;5.302;2022-07-29T13:42:23;38.60;29.30
43999;DHT22;51319;52.162;5.302;2022-07-29T13:44:50;38.70;29.20
43999;DHT22;51319;52.162;5.302;2022-07-29T13:47:18;38.70;29.80
43999;DHT22;51319;52.162;5.302;2022-07-29T13:49:44;38.70;29.50
43999;DHT22;51319;52.162;5.302;2022-07-29T13:52:14;38.50;29.90
43999;DHT22;51319;52.162;5.302;2022-07-29T13:54:42;38.20;30.10
43999;DHT22;51319;52.162;5.302;2022-07-29T13:57:10;38.10;29.80
43999;DHT22;51319;52.162;5.302;2022-07-29T13:59:40;37.90;29.80
43999;DHT22;51319;52.162;5.302;2022-07-29T14:02:08;37.70;30.50
43999;DHT22;51319;52.162;5.302;2022-07-29T14:04:35;37.50;30.60
43999;DHT22;51319;52.162;5.302;2022-07-29T14:07:05;37.00;30.10
43999;DHT22;51319;52.162;5.302;2022-07-29T14:09:31;36.40;30.90
43999;DHT22;51319;52.162;5.302;2022-07-29T14:12:07;35.90;31.60
43999;DHT22;51319;52.162;5.302;2022-07-29T14:14:34;35.50;32.00
43999;DHT22;51319;52.162;5.302;2022-07-29T14:17:02;35.10;32.80
43999;DHT22;51319;52.162;5.302;2022-07-29T14:19:29;34.60;33.00
43999;DHT22;51319;52.162;5.302;2022-07-29T14:21:55;34.30;32.80
43999;DHT22;51319;52.162;5.302;2022-07-29T14:24:23;33.90;34.30
43999;DHT22;51319;52.162;5.302;2022-07-29T14:26:51;33.50;34.50
43999;DHT22;51319;52.162;5.302;2022-07-29T14:29:17;33.10;34.60
43999;DHT22;51319;52.162;5.302;2022-07-29T14:31:43;32.90;34.70
43999;DHT22;51319;52.162;5.302;2022-07-29T14:34:10;32.60;35.50
43999;DHT22;51319;52.162;5.302;2022-07-29T14:36:36;32.40;34.80
43999;DHT22;51319;52.162;5.302;2022-07-29T14:39:03;32.10;34.90
43999;DHT22;51319;52.162;5.302;2022-07-29T14:41:29;32.00;35.70
43999;DHT22;51319;52.162;5.302;2022-07-29T14:43:56;31.80;35.70
43999;DHT22;51319;52.162;5.302;2022-07-29T14:46:23;31.80;36.80
43999;DHT22;51319;52.162;5.302;2022-07-29T14:48:50;31.50;36.10
43999;DHT22;51319;52.162;5.302;2022-07-29T14:51:16;31.30;36.00
43999;DHT22;51319;52.162;5.302;2022-07-29T14:53:43;31.20;37.60
43999;DHT22;51319;52.162;5.302;2022-07-29T14:56:09;31.00;37.60
43999;DHT22;51319;52.162;5.302;2022-07-29T14:58:58;30.90;37.10
43999;DHT22;51319;52.162;5.302;2022-07-29T15:01:24;30.70;38.20
43999;DHT22;51319;52.162;5.302;2022-07-29T15:03:51;30.70;38.60
43999;DHT22;51319;52.162;5.302;2022-07-29T15:06:22;30.70;38.00
43999;DHT22;51319;52.162;5.302;2022-07-29T15:08:48;30.60;37.70
43999;DHT22;51319;52.162;5.302;2022-07-29T15:11:14;30.50;37.50
43999;DHT22;51319;52.162;5.302;2022-07-29T15:13:40;30.40;37.70
43999;DHT22;51319;52.162;5.302;2022-07-29T15:16:07;30.40;36.40
43999;DHT22;51319;52.162;5.302;2022-07-29T15:18:33;30.30;36.50
43999;DHT22;51319;52.162;5.302;2022-07-29T15:20:59;30.20;36.60
43999;DHT22;51319;52.162;5.302;2022-07-29T15:23:27;30.20;36.10
43999;DHT22;51319;52.162;5.302;2022-07-29T15:25:54;30.30;35.50
43999;DHT22;51319;52.162;5.302;2022-07-29T15:28:20;30.20;34.90
43999;DHT22;51319;52.162;5.302;2022-07-29T15:30:46;30.10;35.20
43999;DHT22;51319;52.162;5.302;2022-07-29T15:33:13;29.90;35.30
43999;DHT22;51319;52.162;5.302;2022-07-29T15:35:39;29.80;35.10
43999;DHT22;51319;52.162;5.302;2022-07-29T15:38:06;29.70;35.00
43999;DHT22;51319;52.162;5.302;2022-07-29T15:40:32;29.60;34.50
43999;DHT22;51319;52.162;5.302;2022-07-29T15:42:59;29.50;35.30
43999;DHT22;51319;52.162;5.302;2022-07-29T15:45:49;29.50;35.40
43999;DHT22;51319;52.162;5.302;2022-07-29T15:48:37;29.50;36.10
43999;DHT22;51319;52.162;5.302;2022-07-29T15:51:04;29.50;36.20
43999;DHT22;51319;52.162;5.302;2022-07-29T15:53:30;29.50;35.80
43999;DHT22;51319;52.162;5.302;2022-07-29T15:55:58;29.50;35.50
43999;DHT22;51319;52.162;5.302;2022-07-29T15:58:24;29.40;34.90
43999;DHT22;51319;52.162;5.302;2022-07-29T16:00:50;29.30;35.00
43999;DHT22;51319;52.162;5.302;2022-07-29T16:03:17;29.20;35.20
43999;DHT22;51319;52.162;5.302;2022-07-29T16:05:43;29.10;35.20
43999;DHT22;51319;52.162;5.302;2022-07-29T16:08:10;29.00;35.80
43999;DHT22;51319;52.162;5.302;2022-07-29T16:10:36;29.00;35.60
43999;DHT22;51319;52.162;5.302;2022-07-29T16:13:02;28.90;35.10